sensor_id;sensor_type;location;lat;lon;timestamp;P1;durP1;ratioP1;P2;durP2;ratioP2
6475;SDS011;3271;51.910;5.840;2023-02-08T00:00:50;11.30;;;10.20;;
6475;SDS011;3271;51.910;5.840;2023-02-08T00:03:16;12.55;;;10.60;;
6475;SDS011;3271;51.910;5.840;2023-02-08T00:05:42;11.13;;;10.00;;
6475;SDS011;3271;51.910;5.840;2023-02-08T00:08:07;10.88;;;9.77;;
6475;SDS011;3271;51.910;5.840;2023-02-08T00:10:33;10.90;;;9.33;;
6475;SDS011;3271;51.910;5.840;2023-02-08T00:12:59;10.82;;;9.82;;
6475;SDS011;3271;51.910;5.840;2023-02-08T00:15:25;10.37;;;9.37;;
6475;SDS011;3271;51.910;5.840;2023-02-08T00:17:51;12.23;;;10.33;;
6475;SDS011;3271;51.910;5.840;2023-02-08T00:20:17;10.80;;;9.70;;
6475;SDS011;3271;51.910;5.840;2023-02-08T00:22:43;10.50;;;9.40;;
6475;SDS011;3271;51.910;5.840;2023-02-08T00:25:09;10.10;;;9.10;;
6475;SDS011;3271;51.910;5.840;2023-02-08T00:27:35;10.73;;;9.63;;
6475;SDS011;3271;51.910;5.840;2023-02-08T00:30:01;10.87;;;9.83;;
6475;SDS011;3271;51.910;5.840;2023-02-08T00:32:27;9.82;;;8.77;;
6475;SDS011;3271;51.910;5.840;2023-02-08T00:34:53;10.90;;;9.50;;
6475;SDS011;3271;51.910;5.840;2023-02-08T00:37:19;10.43;;;9.33;;
6475;SDS011;3271;51.910;5.840;2023-02-08T00:39:45;10.40;;;9.40;;
6475;SDS011;3271;51.910;5.840;2023-02-08T00:42:11;9.90;;;9.00;;
6475;SDS011;3271;51.910;5.840;2023-02-08T00:44:37;10.57;;;9.47;;
6475;SDS011;3271;51.910;5.840;2023-02-08T00:47:03;11.13;;;9.97;;
6475;SDS011;3271;51.910;5.840;2023-02-08T00:49:29;11.00;;;9.90;;
6475;SDS011;3271;51.910;5.840;2023-02-08T00:51:55;10.77;;;9.65;;
6475;SDS011;3271;51.910;5.840;2023-02-08T00:54:21;10.63;;;9.53;;
6475;SDS011;3271;51.910;5.840;2023-02-08T00:56:47;11.10;;;9.87;;
6475;SDS011;3271;51.910;5.840;2023-02-08T00:59:13;10.77;;;9.77;;
6475;SDS011;3271;51.910;5.840;2023-02-08T01:01:39;10.67;;;9.67;;
6475;SDS011;3271;51.910;5.840;2023-02-08T01:04:05;10.93;;;9.57;;
6475;SDS011;3271;51.910;5.840;2023-02-08T01:06:31;10.10;;;9.10;;
6475;SDS011;3271;51.910;5.840;2023-02-08T01:08:57;12.00;;;10.67;;
6475;SDS011;3271;51.910;5.840;2023-02-08T01:11:24;10.90;;;9.77;;
6475;SDS011;3271;51.910;5.840;2023-02-08T01:13:53;9.63;;;8.63;;
6475;SDS011;3271;51.910;5.840;2023-02-08T01:16:22;10.70;;;9.60;;
6475;SDS011;3271;51.910;5.840;2023-02-08T01:18:49;11.23;;;10.03;;
6475;SDS011;3271;51.910;5.840;2023-02-08T01:21:16;14.13;;;10.27;;
6475;SDS011;3271;51.910;5.840;2023-02-08T01:23:42;10.43;;;9.20;;
6475;SDS011;3271;51.910;5.840;2023-02-08T01:26:09;10.73;;;9.67;;
6475;SDS011;3271;51.910;5.840;2023-02-08T01:28:35;11.93;;;9.77;;
6475;SDS011;3271;51.910;5.840;2023-02-08T01:31:05;11.67;;;10.10;;
6475;SDS011;3271;51.910;5.840;2023-02-08T01:33:31;9.93;;;8.93;;
6475;SDS011;3271;51.910;5.840;2023-02-08T01:35:57;10.67;;;9.63;;
6475;SDS011;3271;51.910;5.840;2023-02-08T01:38:23;10.60;;;9.47;;
6475;SDS011;3271;51.910;5.840;2023-02-08T01:40:49;11.30;;;9.10;;
6475;SDS011;3271;51.910;5.840;2023-02-08T01:43:19;10.17;;;9.17;;
6475;SDS011;3271;51.910;5.840;2023-02-08T01:45:45;10.83;;;9.17;;
6475;SDS011;3271;51.910;5.840;2023-02-08T01:48:12;10.80;;;9.47;;
6475;SDS011;3271;51.910;5.840;2023-02-08T01:50:43;10.87;;;9.77;;
6475;SDS011;3271;51.910;5.840;2023-02-08T01:53:10;10.30;;;9.23;;
6475;SDS011;3271;51.910;5.840;2023-02-08T01:55:37;11.10;;;9.90;;
6475;SDS011;3271;51.910;5.840;2023-02-08T01:58:05;10.10;;;9.20;;
6475;SDS011;3271;51.910;5.840;2023-02-08T02:00:32;10.57;;;9.40;;
6475;SDS011;3271;51.910;5.840;2023-02-08T02:02:58;11.00;;;9.93;;
6475;SDS011;3271;51.910;5.840;2023-02-08T02:05:27;12.73;;;10.03;;
6475;SDS011;3271;51.910;5.840;2023-02-08T02:07:54;10.33;;;9.23;;
6475;SDS011;3271;51.910;5.840;2023-02-08T02:10:26;10.93;;;9.73;;
6475;SDS011;3271;51.910;5.840;2023-02-08T02:12:52;10.77;;;9.67;;
6475;SDS011;3271;51.910;5.840;2023-02-08T02:15:19;9.97;;;8.97;;
6475;SDS011;3271;51.910;5.840;2023-02-08T02:17:45;10.50;;;9.40;;
6475;SDS011;3271;51.910;5.840;2023-02-08T02:20:23;10.73;;;9.67;;
6475;SDS011;3271;51.910;5.840;2023-02-08T02:23:00;12.03;;;10.33;;
6475;SDS011;3271;51.910;5.840;2023-02-08T02:25:45;11.33;;;9.50;;
6475;SDS011;3271;51.910;5.840;2023-02-08T02:28:34;11.47;;;9.73;;
6475;SDS011;3271;51.910;5.840;2023-02-08T02:36:28;11.20;;;9.80;;
6475;SDS011;3271;51.910;5.840;2023-02-08T02:39:33;10.67;;;9.57;;
6475;SDS011;3271;51.910;5.840;2023-02-08T02:41:56;11.17;;;9.70;;
6475;SDS011;3271;51.910;5.840;2023-02-08T02:44:57;11.03;;;9.73;;
6475;SDS011;3271;51.910;5.840;2023-02-08T02:47:31;10.20;;;9.20;;
6475;SDS011;3271;51.910;5.840;2023-02-08T02:50:45;11.30;;;10.13;;
6475;SDS011;3271;51.910;5.840;2023-02-08T02:52:56;11.03;;;9.93;;
6475;SDS011;3271;51.910;5.840;2023-02-08T02:55:24;10.50;;;9.47;;
6475;SDS011;3271;51.910;5.840;2023-02-08T02:57:50;11.20;;;10.03;;
6475;SDS011;3271;51.910;5.840;2023-02-08T03:00:19;11.10;;;10.00;;
6475;SDS011;3271;51.910;5.840;2023-02-08T03:02:46;11.50;;;9.53;;
6475;SDS011;3271;51.910;5.840;2023-02-08T03:05:12;10.43;;;9.43;;
6475;SDS011;3271;51.910;5.840;2023-02-08T03:10:34;11.33;;;10.13;;
6475;SDS011;3271;51.910;5.840;2023-02-08T03:13:08;11.27;;;10.10;;
6475;SDS011;3271;51.910;5.840;2023-02-08T03:15:40;11.43;;;10.23;;
6475;SDS011;3271;51.910;5.840;2023-02-08T03:18:15;10.73;;;9.63;;
6475;SDS011;3271;51.910;5.840;2023-02-08T03:20:53;12.50;;;9.57;;
6475;SDS011;3271;51.910;5.840;2023-02-08T03:23:25;11.13;;;10.03;;
6475;SDS011;3271;51.910;5.840;2023-02-08T03:28:29;10.53;;;9.53;;
6475;SDS011;3271;51.910;5.840;2023-02-08T03:31:01;11.47;;;9.20;;
6475;SDS011;3271;51.910;5.840;2023-02-08T03:33:37;10.70;;;9.57;;
6475;SDS011;3271;51.910;5.840;2023-02-08T03:36:07;11.53;;;9.83;;
6475;SDS011;3271;51.910;5.840;2023-02-08T03:38:35;11.10;;;9.90;;
6475;SDS011;3271;51.910;5.840;2023-02-08T03:41:03;10.77;;;9.67;;
6475;SDS011;3271;51.910;5.840;2023-02-08T03:43:33;10.73;;;9.23;;
6475;SDS011;3271;51.910;5.840;2023-02-08T03:48:26;11.10;;;9.67;;
6475;SDS011;3271;51.910;5.840;2023-02-08T03:50:53;10.10;;;9.00;;
6475;SDS011;3271;51.910;5.840;2023-02-08T03:53:21;10.07;;;9.07;;
6475;SDS011;3271;51.910;5.840;2023-02-08T03:55:47;10.53;;;9.53;;
6475;SDS011;3271;51.910;5.840;2023-02-08T03:58:17;11.23;;;9.87;;
6475;SDS011;3271;51.910;5.840;2023-02-08T04:00:48;11.73;;;10.53;;
6475;SDS011;3271;51.910;5.840;2023-02-08T04:03:18;11.53;;;9.77;;
6475;SDS011;3271;51.910;5.840;2023-02-08T04:05:44;10.00;;;8.93;;
6475;SDS011;3271;51.910;5.840;2023-02-08T04:08:11;10.93;;;9.83;;
6475;SDS011;3271;51.910;5.840;2023-02-08T04:10:36;10.87;;;9.77;;
6475;SDS011;3271;51.910;5.840;2023-02-08T04:13:03;12.17;;;10.03;;
6475;SDS011;3271;51.910;5.840;2023-02-08T04:15:29;10.50;;;9.40;;
6475;SDS011;3271;51.910;5.840;2023-02-08T04:17:55;12.37;;;10.20;;
6475;SDS011;3271;51.910;5.840;2023-02-08T04:20:21;10.33;;;9.37;;
6475;SDS011;3271;51.910;5.840;2023-02-08T04:22:46;11.47;;;10.23;;
6475;SDS011;3271;51.910;5.840;2023-02-08T04:25:13;10.43;;;9.13;;
6475;SDS011;3271;51.910;5.840;2023-02-08T04:27:39;10.60;;;9.53;;
6475;SDS011;3271;51.910;5.840;2023-02-08T04:30:05;10.57;;;9.27;;
6475;SDS011;3271;51.910;5.840;2023-02-08T04:32:31;11.03;;;9.53;;
6475;SDS011;3271;51.910;5.840;2023-02-08T04:34:57;11.17;;;9.73;;
6475;SDS011;3271;51.910;5.840;2023-02-08T04:37:23;10.10;;;9.13;;
6475;SDS011;3271;51.910;5.840;2023-02-08T04:39:49;10.33;;;9.33;;
6475;SDS011;3271;51.910;5.840;2023-02-08T04:42:15;13.50;;;10.67;;
6475;SDS011;3271;51.910;5.840;2023-02-08T04:44:41;12.43;;;9.73;;
6475;SDS011;3271;51.910;5.840;2023-02-08T04:47:07;11.03;;;9.37;;
6475;SDS011;3271;51.910;5.840;2023-02-08T04:49:33;10.97;;;9.27;;
6475;SDS011;3271;51.910;5.840;2023-02-08T04:51:59;10.77;;;9.67;;
6475;SDS011;3271;51.910;5.840;2023-02-08T04:54:24;10.70;;;9.67;;
6475;SDS011;3271;51.910;5.840;2023-02-08T04:56:51;10.83;;;9.47;;
6475;SDS011;3271;51.910;5.840;2023-02-08T04:59:17;10.30;;;9.30;;
6475;SDS011;3271;51.910;5.840;2023-02-08T05:01:43;11.23;;;10.07;;
6475;SDS011;3271;51.910;5.840;2023-02-08T05:04:09;10.37;;;9.27;;
6475;SDS011;3271;51.910;5.840;2023-02-08T05:06:35;10.43;;;9.40;;
6475;SDS011;3271;51.910;5.840;2023-02-08T05:09:01;10.87;;;9.77;;
6475;SDS011;3271;51.910;5.840;2023-02-08T05:11:27;11.27;;;9.10;;
6475;SDS011;3271;51.910;5.840;2023-02-08T05:13:53;10.80;;;9.60;;
6475;SDS011;3271;51.910;5.840;2023-02-08T05:16:19;10.90;;;9.50;;
6475;SDS011;3271;51.910;5.840;2023-02-08T05:18:45;11.77;;;10.47;;
6475;SDS011;3271;51.910;5.840;2023-02-08T05:21:11;11.57;;;10.23;;
6475;SDS011;3271;51.910;5.840;2023-02-08T05:23:37;12.27;;;9.90;;
6475;SDS011;3271;51.910;5.840;2023-02-08T05:26:06;10.90;;;9.90;;
6475;SDS011;3271;51.910;5.840;2023-02-08T05:28:33;10.67;;;9.57;;
6475;SDS011;3271;51.910;5.840;2023-02-08T05:30:58;11.27;;;9.87;;
6475;SDS011;3271;51.910;5.840;2023-02-08T05:33:24;11.30;;;10.10;;
6475;SDS011;3271;51.910;5.840;2023-02-08T05:35:50;13.00;;;10.60;;
6475;SDS011;3271;51.910;5.840;2023-02-08T05:38:16;11.77;;;10.40;;
6475;SDS011;3271;51.910;5.840;2023-02-08T05:40:42;12.07;;;10.90;;
6475;SDS011;3271;51.910;5.840;2023-02-08T05:43:08;10.80;;;9.50;;
6475;SDS011;3271;51.910;5.840;2023-02-08T05:45:34;11.43;;;10.20;;
6475;SDS011;3271;51.910;5.840;2023-02-08T05:48:00;12.03;;;10.53;;
6475;SDS011;3271;51.910;5.840;2023-02-08T05:50:26;10.43;;;9.27;;
6475;SDS011;3271;51.910;5.840;2023-02-08T05:52:52;11.77;;;10.53;;
6475;SDS011;3271;51.910;5.840;2023-02-08T05:55:18;11.03;;;9.93;;
6475;SDS011;3271;51.910;5.840;2023-02-08T05:57:43;11.90;;;10.80;;
6475;SDS011;3271;51.910;5.840;2023-02-08T06:00:10;12.30;;;10.67;;
6475;SDS011;3271;51.910;5.840;2023-02-08T06:02:36;11.03;;;9.93;;
6475;SDS011;3271;51.910;5.840;2023-02-08T06:05:01;11.63;;;10.43;;
6475;SDS011;3271;51.910;5.840;2023-02-08T06:07:27;11.77;;;10.67;;
6475;SDS011;3271;51.910;5.840;2023-02-08T06:09:53;11.17;;;10.07;;
6475;SDS011;3271;51.910;5.840;2023-02-08T06:12:19;12.13;;;10.93;;
6475;SDS011;3271;51.910;5.840;2023-02-08T06:14:45;11.63;;;10.53;;
6475;SDS011;3271;51.910;5.840;2023-02-08T06:17:11;11.37;;;9.87;;
6475;SDS011;3271;51.910;5.840;2023-02-08T06:19:37;12.13;;;9.90;;
6475;SDS011;3271;51.910;5.840;2023-02-08T06:22:03;12.27;;;10.53;;
6475;SDS011;3271;51.910;5.840;2023-02-08T06:24:29;12.03;;;10.27;;
6475;SDS011;3271;51.910;5.840;2023-02-08T06:26:55;11.47;;;9.70;;
6475;SDS011;3271;51.910;5.840;2023-02-08T06:29:21;13.13;;;10.53;;
6475;SDS011;3271;51.910;5.840;2023-02-08T06:31:47;12.63;;;11.33;;
6475;SDS011;3271;51.910;5.840;2023-02-08T06:34:13;12.67;;;10.63;;
6475;SDS011;3271;51.910;5.840;2023-02-08T06:36:39;14.30;;;10.80;;
6475;SDS011;3271;51.910;5.840;2023-02-08T06:39:05;16.73;;;11.40;;
6475;SDS011;3271;51.910;5.840;2023-02-08T06:41:30;18.37;;;11.27;;
6475;SDS011;3271;51.910;5.840;2023-02-08T06:43:56;17.20;;;11.23;;
6475;SDS011;3271;51.910;5.840;2023-02-08T06:46:23;15.27;;;11.63;;
6475;SDS011;3271;51.910;5.840;2023-02-08T06:48:49;13.50;;;10.50;;
6475;SDS011;3271;51.910;5.840;2023-02-08T06:51:15;13.97;;;11.00;;
6475;SDS011;3271;51.910;5.840;2023-02-08T06:53:41;13.13;;;10.40;;
6475;SDS011;3271;51.910;5.840;2023-02-08T06:56:07;14.27;;;9.83;;
6475;SDS011;3271;51.910;5.840;2023-02-08T06:58:33;12.40;;;10.43;;
6475;SDS011;3271;51.910;5.840;2023-02-08T07:00:59;15.60;;;11.10;;
6475;SDS011;3271;51.910;5.840;2023-02-08T07:03:26;12.27;;;10.50;;
6475;SDS011;3271;51.910;5.840;2023-02-08T07:05:52;13.47;;;11.17;;
6475;SDS011;3271;51.910;5.840;2023-02-08T07:08:18;13.03;;;11.77;;
6475;SDS011;3271;51.910;5.840;2023-02-08T07:10:43;13.57;;;12.17;;
6475;SDS011;3271;51.910;5.840;2023-02-08T07:13:10;10.70;;;9.67;;
6475;SDS011;3271;51.910;5.840;2023-02-08T07:15:36;11.87;;;9.80;;
6475;SDS011;3271;51.910;5.840;2023-02-08T07:18:02;12.13;;;10.87;;
6475;SDS011;3271;51.910;5.840;2023-02-08T07:20:28;12.33;;;11.00;;
6475;SDS011;3271;51.910;5.840;2023-02-08T07:22:54;11.47;;;10.17;;
6475;SDS011;3271;51.910;5.840;2023-02-08T07:25:20;14.23;;;10.87;;
6475;SDS011;3271;51.910;5.840;2023-02-08T07:27:46;12.17;;;10.90;;
6475;SDS011;3271;51.910;5.840;2023-02-08T07:30:12;13.57;;;11.30;;
6475;SDS011;3271;51.910;5.840;2023-02-08T07:32:38;13.87;;;10.80;;
6475;SDS011;3271;51.910;5.840;2023-02-08T07:35:04;11.67;;;10.30;;
6475;SDS011;3271;51.910;5.840;2023-02-08T07:37:30;11.27;;;10.07;;
6475;SDS011;3271;51.910;5.840;2023-02-08T07:39:57;11.20;;;10.07;;
6475;SDS011;3271;51.910;5.840;2023-02-08T07:42:22;11.00;;;9.77;;
6475;SDS011;3271;51.910;5.840;2023-02-08T07:44:48;13.27;;;11.87;;
6475;SDS011;3271;51.910;5.840;2023-02-08T07:47:15;11.57;;;10.37;;
6475;SDS011;3271;51.910;5.840;2023-02-08T07:49:41;10.23;;;9.20;;
6475;SDS011;3271;51.910;5.840;2023-02-08T07:52:07;13.37;;;10.60;;
6475;SDS011;3271;51.910;5.840;2023-02-08T07:54:33;13.57;;;10.40;;
6475;SDS011;3271;51.910;5.840;2023-02-08T07:56:59;11.13;;;10.00;;
6475;SDS011;3271;51.910;5.840;2023-02-08T07:59:25;9.90;;;8.27;;
6475;SDS011;3271;51.910;5.840;2023-02-08T08:01:51;11.93;;;9.33;;
6475;SDS011;3271;51.910;5.840;2023-02-08T08:04:17;10.97;;;9.70;;
6475;SDS011;3271;51.910;5.840;2023-02-08T08:06:43;10.40;;;9.30;;
6475;SDS011;3271;51.910;5.840;2023-02-08T08:09:10;11.67;;;9.87;;
6475;SDS011;3271;51.910;5.840;2023-02-08T08:11:36;10.97;;;9.73;;
6475;SDS011;3271;51.910;5.840;2023-02-08T08:14:02;13.33;;;10.13;;
6475;SDS011;3271;51.910;5.840;2023-02-08T08:16:28;9.32;;;8.40;;
6475;SDS011;3271;51.910;5.840;2023-02-08T08:18:54;10.73;;;9.63;;
6475;SDS011;3271;51.910;5.840;2023-02-08T08:21:20;10.82;;;9.65;;
6475;SDS011;3271;51.910;5.840;2023-02-08T08:23:46;11.30;;;9.75;;
6475;SDS011;3271;51.910;5.840;2023-02-08T08:26:13;9.48;;;8.50;;
6475;SDS011;3271;51.910;5.840;2023-02-08T08:28:40;11.18;;;9.43;;
6475;SDS011;3271;51.910;5.840;2023-02-08T08:31:13;10.65;;;8.77;;
6475;SDS011;3271;51.910;5.840;2023-02-08T08:33:40;12.55;;;9.35;;
6475;SDS011;3271;51.910;5.840;2023-02-08T08:36:06;9.60;;;8.65;;
6475;SDS011;3271;51.910;5.840;2023-02-08T08:38:33;13.32;;;9.55;;
6475;SDS011;3271;51.910;5.840;2023-02-08T08:40:59;13.32;;;9.80;;
6475;SDS011;3271;51.910;5.840;2023-02-08T08:43:25;10.38;;;7.70;;
6475;SDS011;3271;51.910;5.840;2023-02-08T08:45:51;9.35;;;8.35;;
6475;SDS011;3271;51.910;5.840;2023-02-08T08:48:16;11.50;;;8.57;;
6475;SDS011;3271;51.910;5.840;2023-02-08T08:50:42;10.45;;;8.23;;
6475;SDS011;3271;51.910;5.840;2023-02-08T08:53:08;8.57;;;7.03;;
6475;SDS011;3271;51.910;5.840;2023-02-08T08:55:34;9.30;;;7.75;;
6475;SDS011;3271;51.910;5.840;2023-02-08T08:58:00;10.30;;;8.43;;
6475;SDS011;3271;51.910;5.840;2023-02-08T09:00:26;9.43;;;7.80;;
6475;SDS011;3271;51.910;5.840;2023-02-08T09:02:52;11.75;;;7.90;;
6475;SDS011;3271;51.910;5.840;2023-02-08T09:05:18;8.43;;;7.05;;
6475;SDS011;3271;51.910;5.840;2023-02-08T09:07:44;7.95;;;7.18;;
6475;SDS011;3271;51.910;5.840;2023-02-08T09:10:10;12.27;;;7.88;;
6475;SDS011;3271;51.910;5.840;2023-02-08T09:12:36;11.00;;;7.47;;
6475;SDS011;3271;51.910;5.840;2023-02-08T09:15:02;9.23;;;7.18;;
6475;SDS011;3271;51.910;5.840;2023-02-08T09:17:28;8.38;;;7.50;;
6475;SDS011;3271;51.910;5.840;2023-02-08T09:19:54;9.05;;;8.10;;
6475;SDS011;3271;51.910;5.840;2023-02-08T09:22:19;10.05;;;7.65;;
6475;SDS011;3271;51.910;5.840;2023-02-08T09:24:45;10.98;;;7.30;;
6475;SDS011;3271;51.910;5.840;2023-02-08T09:27:11;10.80;;;7.38;;
6475;SDS011;3271;51.910;5.840;2023-02-08T09:29:38;11.05;;;7.30;;
6475;SDS011;3271;51.910;5.840;2023-02-08T09:32:04;11.85;;;8.05;;
6475;SDS011;3271;51.910;5.840;2023-02-08T09:34:30;8.73;;;6.82;;
6475;SDS011;3271;51.910;5.840;2023-02-08T09:36:56;9.23;;;7.47;;
6475;SDS011;3271;51.910;5.840;2023-02-08T09:39:23;7.95;;;6.50;;
6475;SDS011;3271;51.910;5.840;2023-02-08T09:42:11;9.68;;;7.85;;
6475;SDS011;3271;51.910;5.840;2023-02-08T09:47:11;8.57;;;7.35;;
6475;SDS011;3271;51.910;5.840;2023-02-08T09:49:42;8.07;;;6.30;;
6475;SDS011;3271;51.910;5.840;2023-02-08T09:52:10;10.45;;;7.35;;
6475;SDS011;3271;51.910;5.840;2023-02-08T09:54:38;13.32;;;8.13;;
6475;SDS011;3271;51.910;5.840;2023-02-08T09:57:09;9.73;;;7.57;;
6475;SDS011;3271;51.910;5.840;2023-02-08T09:59:36;8.23;;;7.13;;
6475;SDS011;3271;51.910;5.840;2023-02-08T10:02:13;10.07;;;7.95;;
6475;SDS011;3271;51.910;5.840;2023-02-08T10:07:09;10.80;;;8.80;;
6475;SDS011;3271;51.910;5.840;2023-02-08T10:09:35;10.98;;;8.13;;
6475;SDS011;3271;51.910;5.840;2023-02-08T10:12:51;11.25;;;8.15;;
6475;SDS011;3271;51.910;5.840;2023-02-08T10:14:51;13.70;;;8.35;;
6475;SDS011;3271;51.910;5.840;2023-02-08T10:28:10;8.77;;;7.10;;
6475;SDS011;3271;51.910;5.840;2023-02-08T10:33:06;9.75;;;7.18;;
6475;SDS011;3271;51.910;5.840;2023-02-08T10:35:35;12.18;;;7.30;;
6475;SDS011;3271;51.910;5.840;2023-02-08T10:38:44;7.43;;;6.68;;
6475;SDS011;3271;51.910;5.840;2023-02-08T10:40:58;8.60;;;7.22;;
6475;SDS011;3271;51.910;5.840;2023-02-08T10:51:03;9.05;;;6.75;;
6475;SDS011;3271;51.910;5.840;2023-02-08T10:53:29;8.18;;;6.72;;
6475;SDS011;3271;51.910;5.840;2023-02-08T10:55:55;14.13;;;8.68;;
6475;SDS011;3271;51.910;5.840;2023-02-08T10:58:23;7.22;;;6.43;;
6475;SDS011;3271;51.910;5.840;2023-02-08T11:00:52;13.15;;;8.77;;
6475;SDS011;3271;51.910;5.840;2023-02-08T11:03:22;13.48;;;9.63;;
6475;SDS011;3271;51.910;5.840;2023-02-08T11:05:48;15.27;;;9.65;;
6475;SDS011;3271;51.910;5.840;2023-02-08T11:08:15;11.48;;;7.35;;
6475;SDS011;3271;51.910;5.840;2023-02-08T11:10:45;8.90;;;7.28;;
6475;SDS011;3271;51.910;5.840;2023-02-08T11:13:16;7.22;;;6.53;;
6475;SDS011;3271;51.910;5.840;2023-02-08T11:15:46;6.95;;;6.25;;
6475;SDS011;3271;51.910;5.840;2023-02-08T11:18:22;6.68;;;5.25;;
6475;SDS011;3271;51.910;5.840;2023-02-08T11:20:50;7.07;;;5.82;;
6475;SDS011;3271;51.910;5.840;2023-02-08T11:23:28;6.75;;;6.03;;
6475;SDS011;3271;51.910;5.840;2023-02-08T11:25:55;6.10;;;5.50;;
6475;SDS011;3271;51.910;5.840;2023-02-08T11:28:38;7.70;;;6.30;;
6475;SDS011;3271;51.910;5.840;2023-02-08T11:31:08;6.78;;;5.82;;
6475;SDS011;3271;51.910;5.840;2023-02-08T11:33:38;6.40;;;5.75;;
6475;SDS011;3271;51.910;5.840;2023-02-08T11:36:22;5.38;;;4.90;;
6475;SDS011;3271;51.910;5.840;2023-02-08T11:38:47;6.50;;;5.68;;
6475;SDS011;3271;51.910;5.840;2023-02-08T11:41:15;8.48;;;5.80;;
6475;SDS011;3271;51.910;5.840;2023-02-08T11:43:54;6.70;;;6.05;;
6475;SDS011;3271;51.910;5.840;2023-02-08T11:46:22;9.27;;;5.32;;
6475;SDS011;3271;51.910;5.840;2023-02-08T11:48:49;7.25;;;5.40;;
6475;SDS011;3271;51.910;5.840;2023-02-08T11:51:22;5.43;;;4.85;;
6475;SDS011;3271;51.910;5.840;2023-02-08T11:53:49;16.20;;;9.93;;
6475;SDS011;3271;51.910;5.840;2023-02-08T11:56:16;6.28;;;5.68;;
6475;SDS011;3271;51.910;5.840;2023-02-08T12:01:23;9.18;;;5.15;;
6475;SDS011;3271;51.910;5.840;2023-02-08T12:03:50;5.20;;;4.70;;
6475;SDS011;3271;51.910;5.840;2023-02-08T12:06:20;5.20;;;4.72;;
6475;SDS011;3271;51.910;5.840;2023-02-08T12:14:03;6.00;;;5.40;;
6475;SDS011;3271;51.910;5.840;2023-02-08T12:16:44;8.90;;;5.43;;
6475;SDS011;3271;51.910;5.840;2023-02-08T12:27:16;11.02;;;4.95;;
6475;SDS011;3271;51.910;5.840;2023-02-08T12:29:47;6.25;;;4.53;;
6475;SDS011;3271;51.910;5.840;2023-02-08T12:40:29;5.72;;;3.90;;
6475;SDS011;3271;51.910;5.840;2023-02-08T12:43:20;4.15;;;3.65;;
6475;SDS011;3271;51.910;5.840;2023-02-08T12:48:25;4.50;;;4.05;;
6475;SDS011;3271;51.910;5.840;2023-02-08T12:51:06;4.10;;;3.70;;
6475;SDS011;3271;51.910;5.840;2023-02-08T12:53:38;4.07;;;3.67;;
6475;SDS011;3271;51.910;5.840;2023-02-08T12:56:08;4.60;;;4.00;;
6475;SDS011;3271;51.910;5.840;2023-02-08T12:58:39;5.78;;;4.47;;
6475;SDS011;3271;51.910;5.840;2023-02-08T13:01:13;5.22;;;3.70;;
6475;SDS011;3271;51.910;5.840;2023-02-08T13:03:51;4.15;;;3.50;;
6475;SDS011;3271;51.910;5.840;2023-02-08T13:06:42;6.43;;;3.78;;
6475;SDS011;3271;51.910;5.840;2023-02-08T13:09:21;5.30;;;4.10;;
6475;SDS011;3271;51.910;5.840;2023-02-08T13:11:56;4.95;;;4.25;;
6475;SDS011;3271;51.910;5.840;2023-02-08T13:14:34;6.07;;;4.43;;
6475;SDS011;3271;51.910;5.840;2023-02-08T13:17:12;5.63;;;4.20;;
6475;SDS011;3271;51.910;5.840;2023-02-08T13:19:51;7.20;;;4.22;;
6475;SDS011;3271;51.910;5.840;2023-02-08T13:22:17;4.35;;;3.95;;
6475;SDS011;3271;51.910;5.840;2023-02-08T13:24:44;5.68;;;4.50;;
6475;SDS011;3271;51.910;5.840;2023-02-08T13:27:20;10.38;;;4.07;;
6475;SDS011;3271;51.910;5.840;2023-02-08T13:29:47;6.13;;;4.30;;
6475;SDS011;3271;51.910;5.840;2023-02-08T13:32:17;4.50;;;3.75;;
6475;SDS011;3271;51.910;5.840;2023-02-08T13:34:50;9.55;;;5.03;;
6475;SDS011;3271;51.910;5.840;2023-02-08T13:37:19;13.20;;;5.90;;
6475;SDS011;3271;51.910;5.840;2023-02-08T13:39:46;6.68;;;5.05;;
6475;SDS011;3271;51.910;5.840;2023-02-08T13:42:25;6.43;;;4.68;;
6475;SDS011;3271;51.910;5.840;2023-02-08T13:44:52;9.77;;;5.93;;
6475;SDS011;3271;51.910;5.840;2023-02-08T13:49:53;7.10;;;4.78;;
6475;SDS011;3271;51.910;5.840;2023-02-08T13:58:07;4.38;;;3.97;;
6475;SDS011;3271;51.910;5.840;2023-02-08T14:03:20;6.50;;;3.95;;
6475;SDS011;3271;51.910;5.840;2023-02-08T14:08:33;8.25;;;4.60;;
6475;SDS011;3271;51.910;5.840;2023-02-08T14:11:15;6.40;;;4.22;;
6475;SDS011;3271;51.910;5.840;2023-02-08T14:16:35;4.68;;;4.18;;
6475;SDS011;3271;51.910;5.840;2023-02-08T14:19:20;4.25;;;3.85;;
6475;SDS011;3271;51.910;5.840;2023-02-08T14:21:48;4.00;;;3.42;;
6475;SDS011;3271;51.910;5.840;2023-02-08T14:24:42;5.68;;;4.15;;
6475;SDS011;3271;51.910;5.840;2023-02-08T14:27:27;6.82;;;4.53;;
6475;SDS011;3271;51.910;5.840;2023-02-08T14:30:00;6.55;;;4.25;;
6475;SDS011;3271;51.910;5.840;2023-02-08T14:32:28;6.10;;;4.05;;
6475;SDS011;3271;51.910;5.840;2023-02-08T14:35:05;5.25;;;3.88;;
6475;SDS011;3271;51.910;5.840;2023-02-08T14:37:32;5.60;;;4.20;;
6475;SDS011;3271;51.910;5.840;2023-02-08T14:42:55;5.72;;;4.20;;
6475;SDS011;3271;51.910;5.840;2023-02-08T14:45:40;4.88;;;4.05;;
6475;SDS011;3271;51.910;5.840;2023-02-08T14:48:16;3.95;;;3.47;;
6475;SDS011;3271;51.910;5.840;2023-02-08T14:50:50;5.45;;;4.63;;
6475;SDS011;3271;51.910;5.840;2023-02-08T14:53:22;4.80;;;4.30;;
6475;SDS011;3271;51.910;5.840;2023-02-08T14:55:53;5.10;;;4.45;;
6475;SDS011;3271;51.910;5.840;2023-02-08T14:58:27;4.53;;;4.13;;
6475;SDS011;3271;51.910;5.840;2023-02-08T15:00:54;5.40;;;4.18;;
6475;SDS011;3271;51.910;5.840;2023-02-08T15:03:21;7.82;;;4.78;;
6475;SDS011;3271;51.910;5.840;2023-02-08T15:06:11;6.45;;;4.70;;
6475;SDS011;3271;51.910;5.840;2023-02-08T15:08:47;4.95;;;4.45;;
6475;SDS011;3271;51.910;5.840;2023-02-08T15:11:24;5.38;;;4.22;;
6475;SDS011;3271;51.910;5.840;2023-02-08T15:13:52;4.30;;;3.92;;
6475;SDS011;3271;51.910;5.840;2023-02-08T15:16:19;4.65;;;3.97;;
6475;SDS011;3271;51.910;5.840;2023-02-08T15:18:45;4.55;;;4.15;;
6475;SDS011;3271;51.910;5.840;2023-02-08T15:21:14;4.32;;;3.85;;
6475;SDS011;3271;51.910;5.840;2023-02-08T15:23:40;4.38;;;3.33;;
6475;SDS011;3271;51.910;5.840;2023-02-08T15:26:20;4.43;;;4.00;;
6475;SDS011;3271;51.910;5.840;2023-02-08T15:28:46;4.28;;;3.53;;
6475;SDS011;3271;51.910;5.840;2023-02-08T15:31:13;4.00;;;3.65;;
6475;SDS011;3271;51.910;5.840;2023-02-08T15:33:40;4.57;;;3.45;;
6475;SDS011;3271;51.910;5.840;2023-02-08T15:36:13;4.10;;;3.22;;
6475;SDS011;3271;51.910;5.840;2023-02-08T15:38:40;6.88;;;3.63;;
6475;SDS011;3271;51.910;5.840;2023-02-08T15:43:35;3.67;;;3.00;;
6475;SDS011;3271;51.910;5.840;2023-02-08T15:46:03;4.40;;;3.35;;
6475;SDS011;3271;51.910;5.840;2023-02-08T15:48:29;3.53;;;3.22;;
6475;SDS011;3271;51.910;5.840;2023-02-08T15:50:56;3.70;;;3.40;;
6475;SDS011;3271;51.910;5.840;2023-02-08T15:53:22;3.65;;;3.35;;
6475;SDS011;3271;51.910;5.840;2023-02-08T15:55:56;4.15;;;2.63;;
6475;SDS011;3271;51.910;5.840;2023-02-08T15:58:25;3.95;;;3.20;;
6475;SDS011;3271;51.910;5.840;2023-02-08T16:00:52;3.75;;;3.22;;
6475;SDS011;3271;51.910;5.840;2023-02-08T16:03:19;3.30;;;3.00;;
6475;SDS011;3271;51.910;5.840;2023-02-08T16:05:50;4.75;;;3.22;;
6475;SDS011;3271;51.910;5.840;2023-02-08T16:08:19;4.07;;;3.67;;
6475;SDS011;3271;51.910;5.840;2023-02-08T16:10:47;4.20;;;3.63;;
6475;SDS011;3271;51.910;5.840;2023-02-08T16:13:19;4.30;;;3.20;;
6475;SDS011;3271;51.910;5.840;2023-02-08T16:15:46;3.70;;;3.40;;
6475;SDS011;3271;51.910;5.840;2023-02-08T16:20:58;3.58;;;3.00;;
6475;SDS011;3271;51.910;5.840;2023-02-08T16:23:25;5.82;;;3.50;;
6475;SDS011;3271;51.910;5.840;2023-02-08T16:25:52;3.72;;;3.42;;
6475;SDS011;3271;51.910;5.840;2023-02-08T16:28:22;4.28;;;3.25;;
6475;SDS011;3271;51.910;5.840;2023-02-08T16:30:49;4.95;;;3.40;;
6475;SDS011;3271;51.910;5.840;2023-02-08T16:33:15;4.90;;;3.33;;
6475;SDS011;3271;51.910;5.840;2023-02-08T16:35:40;4.32;;;3.90;;
6475;SDS011;3271;51.910;5.840;2023-02-08T16:38:07;3.75;;;3.35;;
6475;SDS011;3271;51.910;5.840;2023-02-08T16:40:47;5.50;;;3.28;;
6475;SDS011;3271;51.910;5.840;2023-02-08T16:45:41;4.88;;;3.53;;
6475;SDS011;3271;51.910;5.840;2023-02-08T16:48:26;4.47;;;3.72;;